Time;durP1;ratioP1;P1;durP2;ratioP2;P2;SDS_P1;SDS_P2;PMS_P1;PMS_P2;Temp;Humidity;BMP_temperature;BMP_pressure;BME280_temperature;BME280_humidity;BME280_pressure;Samples;Min_cycle;Max_cycle;Signal;HPM_P1;HPM_P2
2022/06/09 00:01:46;;;;;;;5.03;2.92;;;29.30;96.80;;;;;;4119701;28;20058;-68
2022/06/09 00:04:03;;;;;;;5.30;3.40;;;29.30;96.70;;;;;;4117342;28;20512;-65
2022/06/09 00:06:09;;;;;;;10.55;3.38;;;29.40;96.80;;;;;;4114226;28;20157;-68
2022/06/09 00:08:13;;;;;;;6.78;3.28;;;29.40;96.90;;;;;;4107731;28;20085;-67
2022/06/09 00:10:23;;;;;;;5.95;2.78;;;29.40;96.90;;;;;;4080472;28;20052;-67
2022/06/09 00:12:30;;;;;;;6.30;3.20;;;29.50;96.80;;;;;;4112540;28;20049;-67
2022/06/09 00:14:36;;;;;;;6.47;3.13;;;29.50;96.70;;;;;;4128740;28;20046;-67
2022/06/09 00:16:45;;;;;;;5.75;3.30;;;29.50;96.80;;;;;;4062450;29;20135;-67
2022/06/09 00:18:50;;;;;;;7.90;3.28;;;29.60;96.60;;;;;;4127732;28;20154;-68
2022/06/09 00:20:54;;;;;;;6.38;3.05;;;29.60;96.60;;;;;;4130414;28;20231;-68
2022/06/09 00:23:02;;;;;;;6.68;2.97;;;29.60;96.40;;;;;;4144456;28;20065;-68
2022/06/09 00:25:08;;;;;;;8.65;3.50;;;29.70;96.60;;;;;;4163307;28;20118;-67
2022/06/09 00:27:12;;;;;;;7.95;3.10;;;29.70;96.50;;;;;;4156187;28;20052;-68
2022/06/09 00:29:22;;;;;;;5.88;3.35;;;29.80;96.50;;;;;;4163682;28;20056;-70
2022/06/09 00:31:36;;;;;;;9.45;3.40;;;29.90;96.40;;;;;;4143912;28;20688;-69
2022/06/09 00:33:41;;;;;;;8.02;3.55;;;29.90;96.20;;;;;;4146867;28;20535;-67
2022/06/09 00:35:50;;;;;;;5.65;2.90;;;29.90;95.90;;;;;;4166171;28;20403;-69
2022/06/09 00:37:55;;;;;;;9.82;3.08;;;30.00;95.90;;;;;;4192732;28;20056;-68
2022/06/09 00:40:00;;;;;;;7.00;3.03;;;30.00;95.90;;;;;;4161266;28;20073;-69
2022/06/09 00:42:09;;;;;;;6.82;2.50;;;30.00;95.60;;;;;;4158495;28;20038;-68
2022/06/09 00:44:16;;;;;;;7.15;2.50;;;30.10;95.60;;;;;;4163197;28;20045;-66
2022/06/09 00:46:24;;;;;;;9.40;2.85;;;30.00;95.50;;;;;;4163633;28;20087;-66
2022/06/09 00:48:42;;;;;;;7.38;2.70;;;30.10;95.60;;;;;;4161862;28;20041;-68
2022/06/09 00:51:01;;;;;;;4.45;2.33;;;30.20;95.50;;;;;;4156400;28;20415;-68
2022/06/09 00:53:07;;;;;;;6.32;2.45;;;30.20;95.40;;;;;;4154770;28;20057;-69
2022/06/09 00:55:16;;;;;;;3.63;2.00;;;30.10;95.10;;;;;;4159707;28;20530;-69
2022/06/09 00:57:35;;;;;;;7.15;2.30;;;30.20;95.10;;;;;;4160973;28;20538;-68
2022/06/09 00:59:42;;;;;;;7.15;2.10;;;30.20;95.10;;;;;;4161616;28;20072;-67
2022/06/09 01:01:49;;;;;;;5.85;2.33;;;30.20;95.20;;;;;;4144195;28;20046;-67
2022/06/09 01:04:05;;;;;;;5.13;2.35;;;30.20;95.20;;;;;;4162104;28;20045;-67
2022/06/09 01:06:13;;;;;;;6.95;2.10;;;30.20;95.00;;;;;;4161401;28;20064;-69
2022/06/09 01:08:22;;;;;;;6.07;2.10;;;30.30;94.70;;;;;;4111665;28;20163;-68
2022/06/09 01:10:35;;;;;;;6.68;2.30;;;30.30;94.70;;;;;;4161494;28;20045;-70
2022/06/09 01:12:42;;;;;;;5.95;2.03;;;30.30;94.30;;;;;;4142990;28;20058;-68
2022/06/09 01:14:48;;;;;;;3.92;1.92;;;30.10;94.30;;;;;;4153408;28;20053;-69
2022/06/09 01:17:05;;;;;;;11.05;2.13;;;30.20;94.50;;;;;;4137284;28;20128;-68
2022/06/09 01:19:48;;;;;;;8.55;2.60;;;30.30;94.70;;;;;;4109805;28;20565;-67
2022/06/09 01:22:12;;;;;;;6.78;1.95;;;30.50;94.30;;;;;;4128619;28;20133;-65
2022/06/09 01:24:33;;;;;;;7.60;2.00;;;30.70;94.30;;;;;;4145861;28;20061;-66
2022/06/09 01:26:43;;;;;;;5.97;2.10;;;30.90;94.20;;;;;;4128769;28;20060;-66
2022/06/09 01:28:54;;;;;;;7.65;2.42;;;30.90;93.70;;;;;;4126118;28;20085;-64
2022/06/09 01:31:03;;;;;;;4.13;1.98;;;30.90;94.20;;;;;;4116986;28;20058;-66
2022/06/09 01:33:22;;;;;;;4.05;1.90;;;31.00;94.10;;;;;;4126812;28;20152;-65
2022/06/09 01:35:37;;;;;;;6.55;2.20;;;31.00;94.10;;;;;;4104144;28;20121;-65
2022/06/09 01:37:49;;;;;;;4.00;1.98;;;31.00;93.80;;;;;;4136832;28;20140;-65
2022/06/09 01:39:55;;;;;;;5.13;2.08;;;30.80;93.50;;;;;;4120379;28;20085;-65
2022/06/09 01:42:18;;;;;;;6.88;2.40;;;30.70;93.30;;;;;;4120551;28;20057;-65
2022/06/09 01:44:22;;;;;;;4.85;2.15;;;30.50;93.50;;;;;;4121090;28;20128;-64
2022/06/09 01:46:31;;;;;;;6.28;2.67;;;30.70;93.80;;;;;;4136572;28;20046;-65
2022/06/09 01:48:38;;;;;;;7.28;2.22;;;30.70;93.80;;;;;;4150893;28;20144;-66
2022/06/09 01:51:13;;;;;;;5.72;2.58;;;30.80;93.20;;;;;;4154858;28;20056;-65
2022/06/09 01:53:30;;;;;;;6.22;2.72;;;30.90;93.00;;;;;;4137204;28;20061;-65
2022/06/09 01:55:43;;;;;;;4.38;2.20;;;30.90;93.10;;;;;;4156896;28;20821;-66
2022/06/09 01:57:49;;;;;;;7.72;2.50;;;30.90;92.80;;;;;;4138994;28;20057;-65
2022/06/09 02:00:07;;;;;;;4.65;2.17;;;31.00;92.70;;;;;;4152136;28;20053;-65
2022/06/09 02:02:16;;;;;;;7.45;2.63;;;31.10;93.00;;;;;;4162799;28;20045;-70
2022/06/09 02:04:24;;;;;;;3.88;1.98;;;31.30;92.70;;;;;;4164927;28;20179;-70
2022/06/09 02:06:28;;;;;;;5.50;1.90;;;31.40;92.60;;;;;;4140744;28;20045;-69
2022/06/09 02:08:37;;;;;;;4.03;1.80;;;31.40;92.30;;;;;;4155571;28;20132;-69
2022/06/09 02:10:46;;;;;;;5.25;2.78;;;31.50;92.30;;;;;;4155214;28;20181;-69
2022/06/09 02:12:51;;;;;;;6.63;3.15;;;31.50;93.00;;;;;;4152619;28;20046;-70
2022/06/09 02:15:00;;;;;;;6.25;2.72;;;31.70;92.50;;;;;;4156441;28;20103;-69
2022/06/09 02:17:06;;;;;;;5.78;2.50;;;31.90;92.40;;;;;;4160803;28;20041;-69
2022/06/09 02:19:10;;;;;;;6.32;2.13;;;32.00;92.40;;;;;;4163802;28;20049;-70
2022/06/09 02:21:32;;;;;;;6.03;1.77;;;32.10;92.30;;;;;;4118906;28;20070;-69
2022/06/09 02:23:37;;;;;;;5.50;1.90;;;32.30;92.20;;;;;;4157382;28;20064;-69
2022/06/09 02:25:42;;;;;;;8.32;2.40;;;32.40;91.90;;;;;;4164408;28;20040;-69
2022/06/09 02:27:47;;;;;;;4.95;1.90;;;32.40;91.60;;;;;;4148052;28;20042;-69
2022/06/09 02:29:51;;;;;;;6.32;1.90;;;32.60;91.60;;;;;;4171957;28;20124;-69
2022/06/09 02:31:56;;;;;;;4.32;2.00;;;32.60;91.70;;;;;;4166971;28;20048;-69
2022/06/09 02:34:03;;;;;;;5.72;2.28;;;32.60;91.90;;;;;;4163626;28;20091;-70
2022/06/09 02:36:08;;;;;;;4.88;2.17;;;32.50;91.10;;;;;;4155980;28;20045;-69
2022/06/09 02:38:12;;;;;;;4.63;1.73;;;32.30;91.60;;;;;;4147128;28;20768;-69
2022/06/09 02:40:21;;;;;;;7.72;2.50;;;32.10;91.10;;;;;;4154617;28;20135;-67
2022/06/09 02:42:26;;;;;;;4.82;2.10;;;32.10;91.30;;;;;;4136190;28;20046;-68
2022/06/09 02:44:30;;;;;;;7.13;2.28;;;32.10;91.40;;;;;;4157621;28;20181;-67
2022/06/09 02:46:39;;;;;;;6.72;1.95;;;32.10;91.40;;;;;;4121902;28;20042;-68
2022/06/09 02:48:44;;;;;;;4.40;1.48;;;32.10;91.10;;;;;;4162092;28;20037;-69
2022/06/09 02:50:48;;;;;;;5.57;1.90;;;32.10;90.80;;;;;;4154746;28;20148;-68
2022/06/09 02:52:56;;;;;;;5.78;2.08;;;32.00;91.00;;;;;;4155327;28;20087;-69
2022/06/09 02:55:02;;;;;;;4.78;1.90;;;32.00;91.00;;;;;;4155274;28;20053;-69
2022/06/09 02:57:07;;;;;;;4.15;1.70;;;32.10;91.00;;;;;;4154769;28;20049;-69
2022/06/09 02:59:14;;;;;;;4.93;1.90;;;32.00;90.90;;;;;;4157259;28;20053;-68
2022/06/09 03:01:21;;;;;;;5.43;2.10;;;32.10;90.90;;;;;;4153682;28;20528;-69
2022/06/09 03:03:25;;;;;;;3.45;1.75;;;32.00;90.80;;;;;;4154821;28;20132;-69
2022/06/09 03:05:32;;;;;;;6.80;1.90;;;32.00;91.10;;;;;;4120814;28;20054;-69
2022/06/09 03:07:38;;;;;;;5.07;2.00;;;32.00;90.90;;;;;;4137715;28;20443;-69
2022/06/09 03:09:43;;;;;;;7.90;2.35;;;32.00;90.90;;;;;;4159636;28;20045;-69
2022/06/09 03:11:50;;;;;;;4.47;1.80;;;32.10;91.20;;;;;;4162656;28;20496;-68
2022/06/09 03:13:57;;;;;;;5.78;1.92;;;32.20;91.10;;;;;;4156529;28;20053;-70
2022/06/09 03:16:01;;;;;;;7.47;2.25;;;32.30;90.70;;;;;;4156546;28;20526;-69
2022/06/09 03:18:08;;;;;;;5.57;2.05;;;32.30;90.70;;;;;;4153813;28;20046;-69
2022/06/09 03:20:16;;;;;;;4.10;1.50;;;32.40;90.70;;;;;;4159339;28;20126;-69
2022/06/09 03:22:30;;;;;;;4.13;1.70;;;32.30;90.50;;;;;;4156082;28;20080;-69
2022/06/09 03:24:38;;;;;;;4.68;1.98;;;32.20;91.00;;;;;;4142528;28;20046;-69
2022/06/09 03:26:44;;;;;;;3.80;1.90;;;32.00;91.30;;;;;;4151840;28;20131;-69
2022/06/09 03:28:49;;;;;;;4.57;1.83;;;32.20;91.20;;;;;;4155418;28;20685;-69
2022/06/09 03:30:57;;;;;;;5.63;1.90;;;32.30;91.10;;;;;;4160601;28;20053;-69
2022/06/09 03:33:04;;;;;;;5.68;1.90;;;32.40;91.10;;;;;;4144525;28;20045;-69
2022/06/09 03:35:10;;;;;;;5.00;1.70;;;32.40;90.50;;;;;;4156620;28;20060;-69
2022/06/09 03:37:16;;;;;;;5.68;2.03;;;32.40;90.90;;;;;;4156004;28;20049;-69
2022/06/09 03:39:23;;;;;;;3.85;1.75;;;32.50;91.00;;;;;;4139969;28;20583;-68
2022/06/09 03:41:27;;;;;;;4.07;2.40;;;32.60;91.10;;;;;;4162757;28;20041;-69
2022/06/09 03:43:39;;;;;;;6.32;2.00;;;32.60;90.80;;;;;;4155793;28;20051;-69
2022/06/09 03:45:45;;;;;;;4.47;2.10;;;32.60;90.90;;;;;;4154689;28;20388;-69
2022/06/09 03:47:50;;;;;;;4.00;2.10;;;32.70;91.00;;;;;;4157054;28;20064;-68
2022/06/09 03:49:56;;;;;;;4.95;1.90;;;32.70;91.00;;;;;;4159261;28;20042;-69
2022/06/09 03:52:02;;;;;;;5.13;2.03;;;32.80;90.90;;;;;;4158831;28;20103;-69
2022/06/09 03:54:14;;;;;;;6.38;1.77;;;32.90;91.10;;;;;;4165416;28;20054;-69
2022/06/09 03:56:21;;;;;;;6.10;1.70;;;33.00;90.90;;;;;;4151129;28;20833;-69
2022/06/09 03:58:26;;;;;;;5.03;1.85;;;33.00;90.60;;;;;;4145003;28;20614;-69
2022/06/09 04:00:31;;;;;;;3.70;1.42;;;33.00;90.30;;;;;;4131028;28;20900;-69
2022/06/09 04:02:38;;;;;;;4.95;2.03;;;32.80;90.10;;;;;;4150789;28;20033;-70
2022/06/09 04:04:44;;;;;;;4.80;1.80;;;32.90;90.30;;;;;;4159541;28;20136;-69
2022/06/09 04:06:49;;;;;;;3.60;1.52;;;32.80;90.10;;;;;;4153659;28;20696;-70
2022/06/09 04:08:55;;;;;;;3.35;1.60;;;32.90;90.40;;;;;;4138221;28;20045;-69
2022/06/09 04:11:01;;;;;;;4.65;1.48;;;33.00;90.30;;;;;;4139457;28;20053;-70
2022/06/09 04:13:06;;;;;;;3.17;1.60;;;33.20;90.00;;;;;;4157372;28;20077;-69
2022/06/09 04:15:14;;;;;;;6.20;1.90;;;33.30;88.10;;;;;;4156215;28;20061;-69
2022/06/09 04:17:21;;;;;;;2.78;1.45;;;33.30;88.60;;;;;;4142167;28;20453;-71
2022/06/09 04:19:27;;;;;;;4.53;1.48;;;33.50;89.00;;;;;;4154393;28;20099;-69
2022/06/09 04:21:34;;;;;;;3.47;1.38;;;33.50;87.20;;;;;;4156775;28;20103;-70
2022/06/09 04:23:41;;;;;;;4.53;1.67;;;33.60;88.10;;;;;;4141515;28;20050;-70
2022/06/09 04:25:48;;;;;;;2.30;1.10;;;33.80;89.30;;;;;;4155956;28;20163;-69
2022/06/09 04:27:52;;;;;;;3.30;1.10;;;33.90;88.20;;;;;;4158119;28;20111;-70
2022/06/09 04:29:59;;;;;;;2.70;1.40;;;33.80;87.40;;;;;;4157355;28;20045;-70
2022/06/09 04:32:04;;;;;;;2.85;1.38;;;33.90;87.80;;;;;;4141624;28;20463;-71
2022/06/09 04:34:14;;;;;;;3.40;1.20;;;33.90;86.50;;;;;;4144267;28;20112;-70
2022/06/09 04:36:20;;;;;;;3.13;1.42;;;34.00;87.90;;;;;;4158886;28;20053;-69
2022/06/09 04:38:25;;;;;;;6.65;2.00;;;34.20;88.90;;;;;;4139612;28;20127;-70
2022/06/09 04:40:36;;;;;;;5.30;1.90;;;34.30;88.40;;;;;;4142270;28;20050;-69
2022/06/09 04:42:43;;;;;;;4.10;1.30;;;34.40;88.70;;;;;;4191568;28;20047;-69
2022/06/09 04:44:48;;;;;;;7.78;1.60;;;34.30;84.80;;;;;;4183947;28;20045;-69
2022/06/09 04:46:55;;;;;;;3.83;1.67;;;34.20;84.90;;;;;;4156463;28;20103;-68
2022/06/09 04:49:00;;;;;;;4.05;1.60;;;34.20;85.50;;;;;;4155926;28;20463;-69
2022/06/09 04:51:09;;;;;;;5.00;1.50;;;34.30;84.90;;;;;;4151137;28;20144;-69
2022/06/09 04:53:17;;;;;;;3.22;1.90;;;34.30;86.90;;;;;;4138653;28;20290;-69
2022/06/09 04:55:26;;;;;;;6.05;1.70;;;34.40;87.10;;;;;;4156976;28;20050;-68
2022/06/09 04:57:31;;;;;;;4.45;1.70;;;34.50;86.60;;;;;;4154248;28;20064;-69
2022/06/09 04:59:37;;;;;;;5.20;1.48;;;34.60;86.50;;;;;;4138943;28;20050;-70
2022/06/09 05:01:42;;;;;;;5.70;1.60;;;34.70;86.50;;;;;;4148310;28;20206;-70
2022/06/09 05:03:47;;;;;;;4.13;1.95;;;34.90;86.60;;;;;;4153475;28;20498;-69
2022/06/09 05:05:54;;;;;;;4.47;1.73;;;34.70;85.70;;;;;;4152531;28;20956;-69
2022/06/09 05:08:00;;;;;;;4.97;1.88;;;34.80;86.00;;;;;;4154655;28;20076;-69
2022/06/09 05:10:05;;;;;;;4.55;1.70;;;34.80;85.10;;;;;;4168323;28;20053;-69
2022/06/09 05:12:12;;;;;;;4.90;1.73;;;34.90;86.00;;;;;;4156196;28;20060;-69
2022/06/09 05:14:18;;;;;;;3.17;1.63;;;35.00;85.60;;;;;;4162550;28;20119;-70
2022/06/09 05:16:23;;;;;;;6.00;2.00;;;35.00;85.50;;;;;;4151889;28;20045;-69
2022/06/09 05:18:30;;;;;;;4.65;2.08;;;34.90;87.10;;;;;;4104204;28;20663;-70
2022/06/09 05:20:35;;;;;;;6.07;1.75;;;34.70;87.40;;;;;;4154194;28;20504;-70
2022/06/09 05:22:40;;;;;;;5.22;1.90;;;35.00;87.00;;;;;;4162538;28;20041;-71
2022/06/09 05:24:44;;;;;;;3.25;1.90;;;35.10;86.80;;;;;;4155375;28;20063;-71
2022/06/09 05:26:49;;;;;;;5.65;1.83;;;35.30;86.70;;;;;;4159864;28;20055;-71
2022/06/09 05:28:54;;;;;;;4.00;1.95;;;35.30;87.00;;;;;;4165932;28;20107;-69
2022/06/09 05:31:00;;;;;;;4.95;1.70;;;35.30;87.80;;;;;;4162202;28;20041;-70
2022/06/09 05:33:07;;;;;;;3.20;2.00;;;35.20;87.40;;;;;;4155287;28;20068;-71
2022/06/09 05:35:11;;;;;;;4.13;1.98;;;35.20;86.10;;;;;;4165564;28;20131;-71
2022/06/09 05:37:19;;;;;;;3.80;1.70;;;35.30;85.10;;;;;;4169803;28;20407;-72
2022/06/09 05:46:16;;;;;;;5.80;2.10;;;35.50;84.40;;;;;;4164383;28;20064;-71
2022/06/09 05:48:22;;;;;;;3.63;1.50;;;35.10;83.60;;;;;;4157393;28;20506;-71
2022/06/09 05:50:27;;;;;;;4.10;1.60;;;35.00;84.20;;;;;;4164751;28;20051;-71
2022/06/09 05:52:33;;;;;;;3.38;1.77;;;35.20;84.20;;;;;;4159450;28;20858;-71
2022/06/09 05:54:38;;;;;;;5.95;2.00;;;35.50;85.50;;;;;;4171079;28;20056;-71
2022/06/09 05:56:45;;;;;;;7.55;2.10;;;35.50;85.10;;;;;;4156911;28;20081;-71
2022/06/09 05:58:51;;;;;;;4.43;2.10;;;35.70;85.80;;;;;;4164164;28;20191;-71
2022/06/09 06:00:56;;;;;;;4.05;1.90;;;35.70;85.30;;;;;;4160435;28;20044;-72
2022/06/09 06:03:03;;;;;;;6.63;2.00;;;35.30;83.90;;;;;;4141981;28;20046;-71
2022/06/09 06:06:33;;;;;;;5.97;1.90;;;35.40;83.90;;;;;;4159489;28;20558;-71
2022/06/09 06:07:34;;;;;;;4.20;1.70;;;35.40;84.10;;;;;;4145995;28;20049;-71
2022/06/09 06:09:41;;;;;;;4.03;2.00;;;35.50;84.30;;;;;;4155649;28;20493;-71
2022/06/09 06:11:49;;;;;;;6.15;2.15;;;35.60;84.20;;;;;;4139450;28;20056;-71
2022/06/09 06:13:56;;;;;;;6.13;2.25;;;35.70;84.10;;;;;;4153025;28;20085;-71
2022/06/09 06:16:01;;;;;;;4.93;1.95;;;35.70;83.50;;;;;;4167383;28;20055;-71
2022/06/09 06:18:28;;;;;;;4.82;1.92;;;35.80;84.10;;;;;;4178579;28;20051;-71
2022/06/09 06:20:34;;;;;;;4.20;2.13;;;36.20;84.10;;;;;;4154111;28;20053;-72
2022/06/09 06:22:41;;;;;;;3.95;2.05;;;36.30;84.90;;;;;;4154875;28;20042;-71
2022/06/09 06:24:47;;;;;;;4.47;2.80;;;36.40;85.90;;;;;;4160681;28;20050;-71
2022/06/09 06:26:53;;;;;;;6.72;2.53;;;36.20;81.90;;;;;;4167979;28;20045;-72
2022/06/09 06:28:58;;;;;;;5.50;2.13;;;36.30;82.30;;;;;;4161314;28;20049;-72
2022/06/09 06:31:04;;;;;;;4.32;1.67;;;36.20;82.60;;;;;;4154318;28;20128;-70
2022/06/09 06:33:10;;;;;;;5.85;1.80;;;36.00;83.10;;;;;;4158791;28;20045;-71
2022/06/09 06:35:16;;;;;;;3.72;1.73;;;35.60;83.00;;;;;;4140470;28;20086;-70
2022/06/09 06:37:20;;;;;;;7.38;2.50;;;35.40;83.70;;;;;;4163596;28;20053;-71
2022/06/09 06:39:25;;;;;;;4.90;2.20;;;35.20;85.60;;;;;;4153673;28;20095;-71
2022/06/09 06:41:31;;;;;;;5.85;2.10;;;35.40;86.30;;;;;;4119983;28;20038;-71
2022/06/09 06:43:38;;;;;;;7.03;2.08;;;35.50;86.10;;;;;;4140226;28;20084;-71
2022/06/09 06:45:44;;;;;;;5.03;2.10;;;35.80;86.20;;;;;;4157330;28;20041;-72
2022/06/09 06:47:50;;;;;;;4.43;2.15;;;36.20;85.50;;;;;;4160874;28;20503;-72
2022/06/09 06:49:57;;;;;;;5.63;2.33;;;36.10;85.40;;;;;;4162825;28;20044;-72
2022/06/09 06:52:02;;;;;;;5.13;2.00;;;35.90;85.80;;;;;;4156028;28;20064;-72
2022/06/09 06:54:11;;;;;;;3.35;2.00;;;35.80;86.50;;;;;;4156040;28;20064;-71
2022/06/09 06:56:16;;;;;;;5.40;2.33;;;35.80;86.70;;;;;;4159257;28;20036;-73
2022/06/09 06:58:22;;;;;;;5.25;2.10;;;35.70;86.70;;;;;;4158156;28;20373;-72
2022/06/09 07:00:29;;;;;;;5.28;2.35;;;35.70;86.80;;;;;;4167701;28;20131;-71
2022/06/09 07:02:39;;;;;;;5.18;2.10;;;35.50;87.20;;;;;;4165599;28;20065;-72
2022/06/09 07:05:04;;;;;;;3.60;2.13;;;35.70;87.80;;;;;;4114448;28;20486;-71
2022/06/09 07:07:11;;;;;;;4.75;2.05;;;35.90;87.60;;;;;;4106351;28;20058;-71
2022/06/09 07:09:17;;;;;;;4.93;2.33;;;36.20;86.90;;;;;;4107045;28;20725;-71
2022/06/09 07:11:23;;;;;;;4.25;2.33;;;36.40;86.40;;;;;;4105822;28;20139;-71
2022/06/09 07:13:29;;;;;;;5.30;2.25;;;36.60;86.10;;;;;;4129551;28;20136;-71
2022/06/09 07:15:34;;;;;;;7.07;2.22;;;36.50;86.20;;;;;;4121340;28;20077;-71
2022/06/09 07:17:38;;;;;;;5.85;1.95;;;36.60;85.70;;;;;;4130611;28;20045;-71
2022/06/09 07:19:43;;;;;;;6.03;2.15;;;36.80;85.60;;;;;;4112456;28;20682;-72
2022/06/09 07:21:50;;;;;;;4.10;1.90;;;36.90;86.30;;;;;;4117247;28;20142;-71
2022/06/09 07:24:00;;;;;;;5.35;2.10;;;36.90;85.70;;;;;;4122058;28;20054;-71
2022/06/09 07:26:05;;;;;;;5.25;2.13;;;36.90;84.40;;;;;;4104450;28;20059;-71
2022/06/09 07:28:11;;;;;;;6.03;2.20;;;36.70;84.00;;;;;;4110798;28;20051;-72
2022/06/09 07:30:16;;;;;;;6.25;2.10;;;36.70;84.10;;;;;;4156588;28;20052;-72
2022/06/09 07:32:23;;;;;;;4.05;2.17;;;36.70;83.10;;;;;;4136227;28;20041;-71
2022/06/09 07:34:30;;;;;;;4.50;2.17;;;36.60;82.60;;;;;;4152905;28;20080;-71
2022/06/09 07:36:36;;;;;;;5.53;2.20;;;36.30;84.10;;;;;;4161229;28;20108;-72
2022/06/09 07:38:43;;;;;;;6.93;2.30;;;36.20;84.30;;;;;;4154754;28;20156;-71
2022/06/09 07:40:47;;;;;;;5.78;2.30;;;36.00;84.30;;;;;;4153454;28;20049;-72
2022/06/09 07:42:59;;;;;;;7.10;2.63;;;35.80;83.40;;;;;;4165756;28;20575;-71
2022/06/09 07:45:06;;;;;;;7.22;2.22;;;35.90;83.70;;;;;;4158286;28;20152;-72
2022/06/09 07:47:11;;;;;;;5.20;2.17;;;36.00;83.30;;;;;;4157543;28;20119;-71
2022/06/09 07:49:15;;;;;;;4.45;2.30;;;35.90;83.90;;;;;;4142282;28;20048;-72
2022/06/09 07:51:21;;;;;;;5.75;2.33;;;36.00;83.30;;;;;;4156450;28;20112;-71
2022/06/09 07:53:28;;;;;;;4.97;2.20;;;36.00;83.30;;;;;;4152855;28;20075;-71
2022/06/09 07:55:33;;;;;;;5.72;2.20;;;36.00;84.00;;;;;;4156285;28;20053;-72
2022/06/09 07:57:39;;;;;;;6.28;2.33;;;36.20;83.40;;;;;;4138494;28;20057;-72
2022/06/09 07:59:44;;;;;;;4.40;2.35;;;35.90;83.70;;;;;;4166247;28;20048;-72
2022/06/09 08:01:50;;;;;;;4.20;2.22;;;35.80;84.80;;;;;;4170218;28;20057;-71
2022/06/09 08:04:03;;;;;;;4.30;1.90;;;35.90;84.70;;;;;;4158806;28;20056;-72
2022/06/09 08:06:08;;;;;;;4.47;1.88;;;36.10;85.00;;;;;;4156175;28;20479;-72
2022/06/09 08:08:31;;;;;;;4.45;2.38;;;36.10;84.90;;;;;;4155089;28;20190;-72
2022/06/09 08:10:38;;;;;;;5.97;3.10;;;36.00;85.10;;;;;;4087581;28;20047;-71
2022/06/09 08:12:44;;;;;;;6.05;2.50;;;36.00;85.50;;;;;;4151907;28;20103;-72
2022/06/09 08:14:50;;;;;;;5.78;2.20;;;36.10;85.40;;;;;;4134860;28;20412;-72
2022/06/09 08:16:57;;;;;;;8.30;3.00;;;36.30;84.90;;;;;;4157736;28;20417;-72
2022/06/09 08:19:02;;;;;;;6.47;2.92;;;36.20;85.20;;;;;;4156951;28;20067;-71
2022/06/09 08:21:09;;;;;;;14.43;7.20;;;36.30;85.30;;;;;;4153421;28;20559;-72
2022/06/09 08:23:30;;;;;;;12.82;6.60;;;36.30;84.90;;;;;;4162199;28;20080;-72
2022/06/09 08:25:40;;;;;;;11.48;6.05;;;36.20;85.40;;;;;;4151670;28;20967;-70
2022/06/09 08:27:47;;;;;;;12.80;6.10;;;36.10;86.00;;;;;;4157231;28;20059;-72
2022/06/09 08:29:52;;;;;;;9.02;4.80;;;35.90;86.00;;;;;;4157596;28;20225;-72
2022/06/09 08:31:57;;;;;;;8.77;4.07;;;35.80;86.40;;;;;;4168316;28;20041;-71
2022/06/09 08:34:01;;;;;;;7.47;3.50;;;35.80;86.80;;;;;;4156916;28;20037;-70
2022/06/09 08:36:06;;;;;;;5.20;2.83;;;35.80;87.10;;;;;;4152500;28;20046;-70
2022/06/09 08:38:13;;;;;;;4.07;2.30;;;35.90;86.50;;;;;;4145795;28;20160;-71
2022/06/09 08:40:22;;;;;;;6.15;2.33;;;35.80;85.70;;;;;;4182728;28;20131;-70
2022/06/09 08:42:39;;;;;;;7.20;2.95;;;35.80;86.30;;;;;;4153390;28;20119;-71
2022/06/09 08:44:44;;;;;;;6.47;2.50;;;35.90;85.80;;;;;;4157448;28;20052;-72
2022/06/09 08:47:04;;;;;;;8.50;3.25;;;35.80;85.70;;;;;;4161685;28;20049;-71
2022/06/09 08:49:26;;;;;;;8.18;3.42;;;35.70;85.70;;;;;;4153295;28;20045;-71
2022/06/09 08:51:43;;;;;;;6.18;3.65;;;35.80;85.30;;;;;;4152625;28;20092;-71
2022/06/09 08:53:54;;;;;;;6.20;3.78;;;35.90;85.10;;;;;;4137512;28;20116;-71
2022/06/09 08:56:04;;;;;;;8.43;3.83;;;36.00;85.50;;;;;;4159336;28;20048;-71
2022/06/09 08:58:16;;;;;;;5.85;2.80;;;36.10;85.40;;;;;;4153493;28;20103;-72
2022/06/09 09:00:23;;;;;;;11.32;4.55;;;36.10;85.50;;;;;;4167216;28;20111;-72
2022/06/09 09:02:40;;;;;;;6.07;3.60;;;36.10;86.20;;;;;;4168432;28;20041;-71
2022/06/09 09:04:50;;;;;;;5.70;3.08;;;36.20;85.80;;;;;;4168025;28;20403;-73
2022/06/09 09:07:09;;;;;;;7.47;2.78;;;36.20;85.60;;;;;;4166916;28;20045;-72
2022/06/09 09:09:22;;;;;;;6.45;2.60;;;36.20;85.60;;;;;;4138644;28;20056;-71
2022/06/09 09:11:32;;;;;;;7.80;2.60;;;36.10;85.50;;;;;;4163356;28;20045;-72
2022/06/09 09:13:51;;;;;;;6.53;2.25;;;36.20;85.50;;;;;;4170124;28;20550;-72
2022/06/09 09:16:02;;;;;;;6.55;2.42;;;36.10;85.70;;;;;;4156487;28;20659;-72
2022/06/09 09:18:23;;;;;;;6.10;2.25;;;36.10;85.60;;;;;;4141677;28;20235;-72
2022/06/09 09:20:40;;;;;;;5.53;2.00;;;36.10;85.40;;;;;;4163316;28;20532;-72
2022/06/09 09:22:59;;;;;;;4.57;1.83;;;36.20;85.40;;;;;;4156761;28;20045;-72
2022/06/09 09:25:37;;;;;;;6.32;2.00;;;36.20;85.30;;;;;;4168604;28;20633;-72
2022/06/09 09:27:47;;;;;;;6.47;2.25;;;36.00;86.30;;;;;;4157396;28;20076;-72
2022/06/09 09:30:11;;;;;;;4.93;2.20;;;36.00;85.40;;;;;;4156238;28;20053;-72
2022/06/09 09:32:29;;;;;;;9.55;2.75;;;36.00;85.70;;;;;;4157021;28;20052;-72
2022/06/09 09:34:37;;;;;;;5.85;2.92;;;36.00;85.30;;;;;;4154762;28;20041;-72
2022/06/09 09:36:41;;;;;;;5.15;2.63;;;36.10;86.10;;;;;;4165537;28;20160;-71
2022/06/09 09:38:56;;;;;;;5.53;2.60;;;36.00;85.20;;;;;;4129784;28;20050;-71
2022/06/09 09:41:02;;;;;;;7.50;2.40;;;36.00;85.30;;;;;;4110127;28;20046;-72
2022/06/09 09:43:10;;;;;;;4.07;1.90;;;36.00;84.90;;;;;;4134298;28;20117;-71
2022/06/09 09:45:20;;;;;;;;;;;36.00;84.70;;;;;;4134809;28;20046;-71
2022/06/09 09:47:26;;;;;;;6.18;2.50;;;35.90;84.60;;;;;;4148057;28;19968;-71
2022/06/09 09:49:35;;;;;;;6.82;2.78;;;35.90;84.80;;;;;;4124533;28;20190;-71
2022/06/09 09:51:43;;;;;;;5.90;2.90;;;35.90;85.00;;;;;;4122695;28;20606;-71
2022/06/09 09:53:54;;;;;;;6.07;3.13;;;35.80;85.10;;;;;;4136266;28;20053;-72
2022/06/09 09:56:17;;;;;;;5.60;2.50;;;35.80;85.20;;;;;;4132744;28;20088;-72
2022/06/09 09:58:26;;;;;;;5.45;2.50;;;35.70;85.50;;;;;;4154218;28;20436;-71
2022/06/09 10:00:32;;;;;;;4.72;2.40;;;35.60;85.80;;;;;;4124549;28;20141;-72
2022/06/09 10:10:56;;;;;;;7.43;3.17;;;35.00;87.10;;;;;;4134328;28;20627;-72
2022/06/09 10:13:23;;;;;;;7.40;3.92;;;35.00;87.20;;;;;;4148877;28;20069;-72
2022/06/09 10:15:44;;;;;;;7.15;3.70;;;34.90;87.50;;;;;;4150109;28;20432;-72
2022/06/09 10:17:57;;;;;;;11.55;3.90;;;34.80;87.70;;;;;;4138277;28;20046;-72
2022/06/09 10:20:43;;;;;;;8.73;3.78;;;34.80;87.70;;;;;;4148731;28;20033;-71
2022/06/09 10:23:09;;;;;;;9.13;3.75;;;34.80;87.70;;;;;;4166650;28;20128;-72
2022/06/09 10:25:38;;;;;;;7.78;3.80;;;34.80;88.00;;;;;;4136322;28;20050;-72
2022/06/09 10:27:42;;;;;;;8.00;3.97;;;34.80;87.90;;;;;;4153889;28;20044;-72
2022/06/09 10:29:51;;;;;;;7.07;3.97;;;34.70;88.40;;;;;;4121561;28;20047;-72
2022/06/09 10:32:06;;;;;;;9.80;3.45;;;34.70;87.70;;;;;;4136604;28;20120;-72
2022/06/09 10:34:24;;;;;;;11.88;3.65;;;34.70;88.00;;;;;;4164374;28;20049;-72
2022/06/09 10:36:41;;;;;;;6.28;3.22;;;34.60;88.60;;;;;;4159306;28;20057;-72
2022/06/09 10:39:09;;;;;;;9.73;3.30;;;34.60;88.00;;;;;;4156992;28;20128;-71
2022/06/09 10:41:40;;;;;;;6.75;3.15;;;34.50;88.00;;;;;;4170570;28;20600;-71
2022/06/09 10:44:01;;;;;;;7.40;3.05;;;34.50;88.50;;;;;;4166631;28;20478;-71
2022/06/09 10:46:32;;;;;;;6.75;3.08;;;34.50;88.80;;;;;;4164082;28;20098;-70
2022/06/09 10:56:40;;;;;;;8.07;3.00;;;34.20;88.60;;;;;;4126767;28;20136;-71
2022/06/09 10:59:05;;;;;;;6.70;2.65;;;34.10;88.80;;;;;;4156773;28;20901;-72
2022/06/09 11:01:30;;;;;;;6.68;3.30;;;34.10;89.10;;;;;;4156316;28;20057;-71
2022/06/09 11:03:42;;;;;;;7.88;3.65;;;34.10;89.00;;;;;;4154679;28;20041;-71
2022/06/09 11:06:10;;;;;;;8.85;3.60;;;34.10;88.90;;;;;;4155897;28;20132;-72
2022/06/09 11:08:26;;;;;;;8.52;4.80;;;34.10;89.10;;;;;;4154453;28;20063;-71
2022/06/09 11:10:53;;;;;;;7.03;3.97;;;34.00;89.20;;;;;;4155576;28;20065;-73
2022/06/09 11:13:01;;;;;;;7.47;4.15;;;34.00;89.10;;;;;;4160452;28;20149;-72
2022/06/09 11:15:14;;;;;;;8.35;4.03;;;33.90;89.30;;;;;;4138461;28;20049;-71
2022/06/09 11:17:33;;;;;;;9.48;4.25;;;33.90;89.40;;;;;;4155248;28;20103;-71
2022/06/09 11:19:50;;;;;;;6.55;3.72;;;33.80;89.80;;;;;;4145861;28;20099;-72
2022/06/09 11:22:19;;;;;;;10.50;3.67;;;33.80;89.70;;;;;;4150234;28;20132;-71
2022/06/09 11:24:44;;;;;;;7.10;3.20;;;33.80;89.70;;;;;;4151416;28;20567;-70
2022/06/09 11:27:00;;;;;;;8.20;3.30;;;33.70;89.60;;;;;;4153472;28;20053;-71
2022/06/09 11:29:23;;;;;;;6.50;3.35;;;33.70;89.70;;;;;;4166801;28;20057;-71
2022/06/09 11:31:34;;;;;;;13.77;4.93;;;33.60;89.80;;;;;;4164721;28;20133;-70
2022/06/09 11:34:03;;;;;;;10.93;4.75;;;33.60;90.00;;;;;;4153423;28;20041;-69
2022/06/09 11:36:32;;;;;;;10.65;4.75;;;33.60;90.10;;;;;;4151452;28;20041;-70
2022/06/09 11:38:51;;;;;;;9.85;3.72;;;33.50;90.10;;;;;;4139850;28;20053;-69